Time;durP1;ratioP1;P1;durP2;ratioP2;P2;SDS_P1;SDS_P2;PMS_P1;PMS_P2;Temp;Humidity;BMP_temperature;BMP_pressure;BME280_temperature;BME280_humidity;BME280_pressure;Samples;Min_cycle;Max_cycle;Signal;HPM_P1;HPM_P2
2022/06/13 00:00:16;;;;;;;;;6.00;3.00;;;;;15.15;100.00;101956.59;5058767;28;44929;-90
2022/06/13 00:02:41;;;;;;;;;4.00;3.00;;;;;15.13;100.00;101975.44;5060232;28;45312;-87
2022/06/13 00:05:08;;;;;;;;;5.25;3.00;;;;;15.12;100.00;101971.03;5041939;28;46851;-89
2022/06/13 00:07:36;;;;;;;;;4.40;4.40;;;;;15.07;100.00;101962.44;5050581;28;44738;-88
2022/06/13 00:10:01;;;;;;;;;5.60;3.00;;;;;15.11;100.00;101968.47;5061054;28;45273;-88
2022/06/13 00:12:28;;;;;;;;;4.00;4.00;;;;;15.14;100.00;101955.75;5043267;28;45426;-88
2022/06/13 00:14:54;;;;;;;;;6.40;3.00;;;;;15.10;100.00;101964.94;5061535;28;46950;-88
2022/06/13 00:17:20;;;;;;;;;6.50;2.25;;;;;15.08;100.00;101961.47;5059924;28;45364;-88
2022/06/13 00:19:45;;;;;;;;;9.50;5.25;;;;;15.03;100.00;101979.66;5060064;28;44953;-88
2022/06/13 00:22:11;;;;;;;;;8.75;4.00;;;;;15.00;100.00;101968.31;5063018;28;44777;-87
2022/06/13 00:24:36;;;;;;;;;2.00;2.00;;;;;14.96;100.00;101967.66;5062121;28;46101;-88
2022/06/13 00:27:02;;;;;;;;;6.25;5.25;;;;;14.94;100.00;101958.00;5062457;28;44712;-87
2022/06/13 00:29:29;;;;;;;;;3.00;3.00;;;;;14.97;100.00;101961.34;5065028;28;44774;-88
2022/06/13 00:31:55;;;;;;;;;2.50;2.00;;;;;14.92;100.00;101971.50;5068474;28;44853;-86
2022/06/13 00:34:21;;;;;;;;;5.50;3.50;;;;;14.94;100.00;101974.06;5068832;28;45124;-87
2022/06/13 00:36:47;;;;;;;;;6.50;5.25;;;;;14.90;100.00;101962.72;5061661;28;44814;-89
2022/06/13 00:39:13;;;;;;;;;5.40;4.60;;;;;14.94;100.00;101960.69;5048479;28;44877;-87
2022/06/13 00:41:41;;;;;;;;;5.50;3.00;;;;;14.95;100.00;101973.13;5064108;28;44904;-87
2022/06/13 00:44:32;;;;;;;;;8.60;6.00;;;;;14.93;100.00;101962.50;5064143;28;46284;-88
2022/06/13 00:46:58;;;;;;;;;7.00;3.60;;;;;14.90;100.00;101960.91;5064473;28;44813;-88
2022/06/13 00:49:29;;;;;;;;;4.50;4.50;;;;;14.95;100.00;101955.25;5073464;28;44758;-87
2022/06/13 00:52:18;;;;;;;;;5.20;3.00;;;;;14.96;100.00;101956.97;5057215;28;44829;-87
2022/06/13 00:54:47;;;;;;;;;5.60;3.00;;;;;14.86;100.00;101951.34;5075279;28;46799;-89
2022/06/13 00:57:18;;;;;;;;;4.20;4.20;;;;;14.83;100.00;101953.38;5078168;28;44726;-86
2022/06/13 00:59:45;;;;;;;;;9.20;4.20;;;;;14.75;100.00;101956.56;5080436;28;44745;-87
2022/06/13 01:02:11;;;;;;;;;5.25;3.00;;;;;14.78;100.00;101951.00;5053751;28;44930;-84
2022/06/13 01:04:39;;;;;;;;;2.60;2.60;;;;;14.75;100.00;101937.84;5067682;28;45155;-88
2022/06/13 01:07:05;;;;;;;;;4.40;3.20;;;;;14.77;100.00;101941.25;5064054;28;45216;-87
2022/06/13 01:12:17;;;;;;;;;5.25;3.00;;;;;14.71;100.00;101932.78;5063125;28;45210;-87
2022/06/13 01:15:21;;;;;;;;;5.80;2.60;;;;;14.65;100.00;101931.38;5062879;28;45551;-85
2022/06/13 01:18:03;;;;;;;;;7.40;3.60;;;;;14.65;100.00;101934.91;5045990;28;45274;-86
2022/06/13 01:21:02;;;;;;;;;8.60;4.80;;;;;14.61;100.00;101933.38;5067409;28;44637;-88
2022/06/13 01:24:12;;;;;;;;;12.50;4.75;;;;;14.60;100.00;101931.66;5053768;28;45326;-86
2022/06/13 01:26:49;;;;;;;;;6.20;2.60;;;;;14.57;100.00;101918.47;5047970;28;47071;-89
2022/06/13 01:29:42;;;;;;;;;4.80;4.40;;;;;14.58;100.00;101940.72;5068438;28;44711;-88
2022/06/13 01:32:19;;;;;;;;;6.40;4.80;;;;;14.55;100.00;101924.88;5075567;28;45159;-87
2022/06/13 01:35:14;;;;;;;;;7.25;6.00;;;;;14.51;100.00;101918.88;5056946;28;44825;-86
2022/06/13 01:37:47;;;;;;;;;7.00;4.40;;;;;14.50;100.00;101930.50;5032005;28;45394;-87
2022/06/13 01:40:16;;;;;;;;;3.80;2.00;;;;;14.47;100.00;101922.69;5052649;28;44728;-86
2022/06/13 01:43:00;;;;;;;;;5.80;5.80;;;;;14.43;100.00;101921.16;5036901;28;45248;-87
2022/06/13 01:45:31;;;;;;;;;4.00;4.00;;;;;14.44;100.00;101922.88;5043113;28;44895;-89
2022/06/13 01:48:20;;;;;;;;;7.25;7.00;;;;;14.44;100.00;101927.34;5059589;28;45054;-86
2022/06/13 01:50:58;;;;;;;;;4.60;4.00;;;;;14.43;100.00;101931.00;5058276;28;44656;-87
2022/06/13 01:53:36;;;;;;;;;3.60;3.60;;;;;14.37;100.00;101933.09;5062113;28;44760;-86
2022/06/13 01:56:11;;;;;;;;;6.50;6.50;;;;;14.42;100.00;101942.66;5058818;28;44775;-85
2022/06/13 01:59:00;;;;;;;;;7.00;6.25;;;;;14.36;100.00;101938.56;5041868;28;46622;-85
2022/06/13 02:01:34;;;;;;;;;4.60;3.00;;;;;14.33;100.00;101950.28;5059460;28;44587;-85
2022/06/13 02:03:59;;;;;;;;;7.00;4.60;;;;;14.32;100.00;101937.88;5055692;28;44746;-87
2022/06/13 02:06:33;;;;;;;;;9.00;6.25;;;;;14.31;100.00;101940.63;5054709;28;45219;-88
2022/06/13 02:09:04;;;;;;;;;7.50;6.25;;;;;14.30;100.00;101938.91;5036021;28;45662;-87
2022/06/13 02:11:35;;;;;;;;;7.80;5.20;;;;;14.26;100.00;101932.91;5054187;28;44869;-87
2022/06/13 02:14:34;;;;;;;;;5.80;5.80;;;;;14.28;100.00;101939.03;5055211;28;44735;-86
2022/06/13 02:17:07;;;;;;;;;10.75;8.50;;;;;14.25;100.00;101941.88;5028895;28;45364;-87
2022/06/13 02:19:35;;;;;;;;;13.50;7.00;;;;;14.22;100.00;101935.91;5047228;28;45188;-87
2022/06/13 02:22:16;;;;;;;;;8.40;5.60;;;;;14.19;100.00;101934.25;5045960;28;44744;-87
2022/06/13 02:24:50;;;;;;;;;9.50;7.00;;;;;14.14;100.00;101939.91;5043918;28;44841;-87
2022/06/13 02:27:19;;;;;;;;;11.25;8.00;;;;;14.12;100.00;101933.81;5024043;28;44807;-87
2022/06/13 02:29:50;;;;;;;;;12.40;7.40;;;;;14.13;100.00;101934.66;5041471;28;45354;-86
2022/06/13 02:32:32;;;;;;;;;6.40;5.20;;;;;14.07;100.00;101943.03;5024276;28;45174;-87
2022/06/13 02:35:04;;;;;;;;;11.25;8.25;;;;;14.03;100.00;101941.53;5066222;28;45349;-86
2022/06/13 02:37:37;;;;;;;;;9.00;7.00;;;;;14.01;100.00;101940.75;5049774;28;45297;-88
2022/06/13 02:40:15;;;;;;;;;9.75;9.75;;;;;14.00;100.00;101933.69;5061734;28;45173;-88
2022/06/13 02:43:06;;;;;;;;;12.20;9.20;;;;;13.96;100.00;101940.19;5059913;28;44869;-88
2022/06/13 02:45:53;;;;;;;;;10.40;8.40;;;;;13.97;100.00;101947.22;5062306;28;44827;-86
2022/06/13 02:48:48;;;;;;;;;12.50;7.75;;;;;13.88;100.00;101944.19;5061063;28;44831;-88
2022/06/13 02:51:23;;;;;;;;;14.75;10.75;;;;;13.91;100.00;101936.94;5069210;28;46673;-88
2022/06/13 02:53:55;;;;;;;;;11.80;6.80;;;;;13.91;100.00;101940.47;5067031;28;45466;-85
2022/06/13 02:59:59;;;;;;;;;12.00;9.25;;;;;13.87;100.00;101946.94;4984289;28;45256;-86
2022/06/13 03:03:01;;;;;;;;;12.75;9.00;;;;;13.85;100.00;101941.69;4987328;28;45472;-89
2022/06/13 03:05:43;;;;;;;;;5.00;4.40;;;;;13.89;100.00;101945.06;4985714;28;45508;-89
2022/06/13 03:08:34;;;;;;;;;9.00;8.20;;;;;13.89;100.00;101947.72;4983619;28;45261;-87
2022/06/13 03:11:18;;;;;;;;;12.00;6.25;;;;;13.86;100.00;101946.09;4981504;28;44801;-87
2022/06/13 03:13:50;;;;;;;;;8.50;8.00;;;;;13.86;100.00;101953.25;4983414;28;45487;-87
2022/06/13 03:16:26;;;;;;;;;7.00;7.00;;;;;13.84;100.00;101950.69;4981689;28;44739;-88
2022/06/13 03:18:56;;;;;;;;;9.80;9.40;;;;;13.82;100.00;101955.22;4980735;28;44694;-87
2022/06/13 03:21:32;;;;;;;;;7.75;6.50;;;;;13.82;100.00;101957.91;4965516;28;45465;-88
2022/06/13 03:24:19;;;;;;;;;11.50;9.00;;;;;13.77;100.00;101960.00;4968507;28;45277;-88
2022/06/13 03:26:55;;;;;;;;;8.40;7.40;;;;;13.79;100.00;101963.47;4971704;28;44714;-87
2022/06/13 03:29:31;;;;;;;;;9.50;7.25;;;;;13.80;100.00;101969.66;4989979;28;44812;-86
2022/06/13 03:32:02;;;;;;;;;10.25;8.75;;;;;13.79;100.00;101970.59;4972217;28;44917;-87
2022/06/13 03:34:33;;;;;;;;;9.50;4.50;;;;;13.80;100.00;101980.34;5028947;28;46577;-88
2022/06/13 03:37:25;;;;;;;;;9.00;6.60;;;;;13.82;100.00;101968.59;5044587;28;44729;-87
2022/06/13 03:40:08;;;;;;;;;5.00;2.75;;;;;13.84;100.00;101979.19;5045380;28;44661;-89
2022/06/13 03:42:52;;;;;;;;;7.25;7.25;;;;;13.84;100.00;101972.03;5048506;28;44656;-88
2022/06/13 03:45:22;;;;;;;;;9.80;8.80;;;;;13.84;100.00;101979.19;5032198;28;46892;-87
2022/06/13 03:47:56;;;;;;;;;7.80;7.80;;;;;13.80;100.00;101975.84;5052020;28;44762;-87
2022/06/13 03:50:33;;;;;;;;;8.00;5.80;;;;;13.81;100.00;101976.72;5051969;28;44760;-88
2022/06/13 03:53:06;;;;;;;;;9.00;8.50;;;;;13.80;100.00;101981.19;5037536;28;44841;-87
2022/06/13 03:55:41;;;;;;;;;12.00;6.75;;;;;13.83;100.00;101967.66;5056867;28;45237;-87
2022/06/13 03:58:35;;;;;;;;;11.00;7.40;;;;;13.87;100.00;101968.31;5035473;28;44766;-86
2022/06/13 04:01:06;;;;;;;;;13.20;9.80;;;;;13.89;100.00;101979.78;5026999;28;44700;-85
2022/06/13 04:03:31;;;;;;;;;11.50;6.50;;;;;13.89;100.00;101975.28;5043797;28;44944;-85
2022/06/13 04:06:04;;;;;;;;;7.75;4.50;;;;;13.93;100.00;101973.31;5043377;28;45261;-86
2022/06/13 04:08:35;;;;;;;;;8.40;7.00;;;;;13.98;100.00;101976.56;5025280;28;44958;-85
2022/06/13 04:11:15;;;;;;;;;8.80;3.60;;;;;13.98;100.00;101976.56;5042724;28;44782;-86
2022/06/13 04:14:12;;;;;;;;;9.50;8.25;;;;;14.07;100.00;101975.09;5041218;28;44822;-84
2022/06/13 04:17:00;;;;;;;;;14.75;9.75;;;;;14.15;100.00;101975.50;4960825;28;46102;-87
2022/06/13 04:20:10;;;;;;;;;8.00;5.80;;;;;14.17;100.00;101975.38;4964999;28;44811;-85
2022/06/13 04:23:06;;;;;;;;;9.00;7.20;;;;;14.27;100.00;101976.56;4951619;28;44777;-86
2022/06/13 04:25:46;;;;;;;;;13.00;7.50;;;;;14.32;100.00;101983.34;4943980;28;45425;-86
2022/06/13 04:28:24;;;;;;;;;8.40;6.60;;;;;14.33;100.00;101977.03;4959812;28;45507;-86
2022/06/13 04:30:53;;;;;;;;;10.80;7.20;;;;;14.43;100.00;101982.66;4960122;28;45352;-84
2022/06/13 04:33:36;;;;;;;;;12.80;8.00;;;;;14.43;100.00;101977.31;4964975;28;44847;-86
2022/06/13 04:36:03;;;;;;;;;6.50;3.75;;;;;14.38;100.00;101985.59;4982582;28;44923;-86
2022/06/13 04:38:31;;;;;;;;;8.60;7.00;;;;;14.36;100.00;101989.34;4973375;28;45288;-85
2022/06/13 04:41:03;;;;;;;;;7.20;4.20;;;;;14.40;100.00;101983.69;4993752;28;45299;-87
2022/06/13 04:43:34;;;;;;;;;6.80;4.60;;;;;14.44;100.00;101980.81;4992194;28;44643;-86
2022/06/13 04:46:08;;;;;;;;;9.00;6.50;;;;;14.59;100.00;101990.56;4969626;28;44899;-86
2022/06/13 04:48:37;;;;;;;;;3.80;3.80;;;;;14.53;100.00;101988.31;4988006;28;45111;-85
2022/06/13 04:51:09;;;;;;;;;6.40;5.20;;;;;14.65;100.00;101982.19;4985643;28;44841;-86
2022/06/13 04:53:58;;;;;;;;;12.80;6.40;;;;;14.69;100.00;101981.00;5065934;28;44796;-86
2022/06/13 04:56:25;;;;;;;;;9.75;7.25;;;;;14.77;100.00;101988.56;5008198;28;45136;-86
2022/06/13 04:58:55;;;;;;;;;6.50;5.50;;;;;14.87;100.00;101990.53;5024417;28;45426;-86
2022/06/13 05:01:36;;;;;;;;;5.40;5.20;;;;;15.08;100.00;101990.06;5022902;28;45460;-86
2022/06/13 05:04:05;;;;;;;;;9.20;7.00;;;;;15.20;100.00;101986.59;5007591;28;44989;-85
2022/06/13 05:06:37;;;;;;;;;5.00;5.00;;;;;15.05;100.00;101999.19;5008848;28;44860;-88
2022/06/13 05:09:28;;;;;;;;;10.80;7.00;;;;;15.08;100.00;101998.97;5025891;28;45102;-86
2022/06/13 05:12:15;;;;;;;;;9.00;7.80;;;;;15.25;100.00;101999.69;4967965;28;45529;-86
2022/06/13 05:14:54;;;;;;;;;7.40;5.60;;;;;15.35;100.00;101998.97;4966040;28;44904;-86
2022/06/13 05:17:49;;;;;;;;;12.75;8.00;;;;;15.28;100.00;101999.47;4945609;28;45412;-87
2022/06/13 05:20:14;;;;;;;;;9.00;8.80;;;;;15.32;100.00;102000.97;4962871;28;45296;-87
2022/06/13 05:23:10;;;;;;;;;9.25;5.00;;;;;15.30;100.00;101993.06;4962823;28;44824;-86
2022/06/13 05:25:43;;;;;;;;;4.20;4.20;;;;;15.42;100.00;101997.59;4962341;28;44895;-85
2022/06/13 05:28:10;;;;;;;;;9.50;8.00;;;;;15.38;100.00;101996.09;4962456;28;44827;-87
2022/06/13 05:30:36;;;;;;;;;7.20;7.20;;;;;15.64;100.00;101993.50;4961701;28;45316;-85
2022/06/13 05:33:02;;;;;;;;;7.60;7.60;;;;;15.85;100.00;101992.00;4961638;28;44791;-86
2022/06/13 05:35:32;;;;;;;;;2.00;2.00;;;;;15.93;100.00;101992.34;4963102;28;44825;-87
2022/06/13 05:38:01;;;;;;;;;7.60;6.00;;;;;15.94;100.00;101990.50;4951051;28;45501;-88
2022/06/13 05:40:27;;;;;;;;;11.80;7.60;;;;;15.77;100.00;101997.06;4966881;28;45079;-89
2022/06/13 05:42:54;;;;;;;;;7.25;5.50;;;;;15.83;100.00;101999.31;4962271;28;45296;-87
2022/06/13 05:45:22;;;;;;;;;6.40;6.20;;;;;15.98;100.00;102009.94;4947438;28;44784;-86
2022/06/13 05:47:50;;;;;;;;;8.00;5.00;;;;;16.06;100.00;102005.75;4965151;28;45517;-86
2022/06/13 05:50:22;;;;;;;;;7.60;6.60;;;;;16.18;100.00;102012.94;5063964;28;46596;-87
2022/06/13 05:52:48;;;;;;;;;9.80;8.40;;;;;16.27;100.00;102018.63;5036765;28;44790;-87
2022/06/13 05:55:14;;;;;;;;;10.40;6.40;;;;;16.16;100.00;102009.50;5056638;28;44777;-86
2022/06/13 05:57:40;;;;;;;;;11.25;5.75;;;;;16.30;100.00;102016.59;5052189;28;44790;-86
2022/06/13 06:00:14;;;;;;;;;10.80;8.20;;;;;16.31;100.00;102020.13;5050971;28;45405;-87
2022/06/13 06:02:40;;;;;;;;;9.00;8.20;;;;;16.52;100.00;102013.22;5053186;28;44845;-84
2022/06/13 06:05:09;;;;;;;;;10.25;9.25;;;;;16.38;100.00;102016.88;5036212;28;44844;-87
2022/06/13 06:07:36;;;;;;;;;8.60;8.00;;;;;16.48;100.00;102017.09;5039132;28;45181;-85
2022/06/13 06:10:03;;;;;;;;;7.40;6.60;;;;;16.73;100.00;102018.03;5034394;28;46803;-86
2022/06/13 06:12:28;;;;;;;;;7.20;5.00;;;;;17.05;100.00;102023.75;5047473;28;45449;-86
2022/06/13 06:14:56;;;;;;;;;6.50;6.50;;;;;16.91;100.00;102024.75;5045554;28;44880;-85
2022/06/13 06:17:21;;;;;;;;;6.40;4.40;;;;;16.86;100.00;102019.72;5043396;28;45235;-87
2022/06/13 06:19:47;;;;;;;;;7.00;7.00;;;;;16.90;100.00;102033.78;5043439;28;45341;-87
2022/06/13 06:22:13;;;;;;;;;9.75;7.50;;;;;16.88;100.00;102038.41;5043003;28;45307;-87
2022/06/13 06:24:41;;;;;;;;;8.60;7.60;;;;;16.87;100.00;102036.69;5028522;28;45250;-86
2022/06/13 06:27:13;;;;;;;;;8.80;8.80;;;;;16.99;100.00;102043.00;5045834;28;44860;-88
2022/06/13 06:29:38;;;;;;;;;11.00;7.60;;;;;16.90;100.00;102037.31;5030309;28;46867;-86
2022/06/13 06:32:04;;;;;;;;;7.25;6.75;;;;;17.09;100.00;102039.50;5053611;28;45283;-85
2022/06/13 06:34:30;;;;;;;;;8.20;5.60;;;;;17.17;100.00;102038.97;5063168;28;44724;-85
2022/06/13 06:36:55;;;;;;;;;12.00;7.75;;;;;17.21;100.00;102046.69;5075535;28;44925;-87
2022/06/13 06:39:20;;;;;;;;;12.00;8.50;;;;;17.28;100.00;102040.84;5077814;28;45200;-86
2022/06/13 06:41:47;;;;;;;;;9.50;7.00;;;;;17.31;100.00;102035.22;5069995;28;44645;-88
2022/06/13 06:44:12;;;;;;;;;12.80;8.80;;;;;17.16;100.00;102042.59;5066129;28;44777;-86
2022/06/13 06:46:38;;;;;;;;;3.50;3.00;;;;;17.26;100.00;102040.97;5045774;28;44806;-88
2022/06/13 06:49:03;;;;;;;;;8.75;7.00;;;;;17.54;100.00;102050.47;5063865;28;45416;-86
2022/06/13 06:51:29;;;;;;;;;7.00;7.00;;;;;17.61;100.00;102051.75;5068239;28;44776;-86
2022/06/13 07:02:10;;;;;;;;;13.80;9.40;;;;;18.09;100.00;102058.91;5061939;28;45533;-84
2022/06/13 07:04:36;;;;;;;;;9.60;7.80;;;;;18.38;100.00;102051.25;5046883;28;44860;-86
2022/06/13 07:07:01;;;;;;;;;8.00;7.25;;;;;18.58;100.00;102057.72;5064330;28;44823;-87
2022/06/13 07:09:27;;;;;;;;;9.75;9.00;;;;;18.72;100.00;102055.69;5046719;28;45431;-86
2022/06/13 07:11:56;;;;;;;;;14.50;8.50;;;;;18.40;100.00;102057.34;5065903;28;44728;-86
2022/06/13 07:14:25;;;;;;;;;12.80;9.20;;;;;18.43;100.00;102063.34;5047075;28;45167;-85
2022/06/13 07:16:51;;;;;;;;;10.60;6.20;;;;;18.39;100.00;102055.63;5045590;28;44829;-88
2022/06/13 07:19:16;;;;;;;;;9.00;7.25;;;;;18.72;100.00;102052.13;5058641;28;45358;-85
2022/06/13 07:21:42;;;;;;;;;12.25;10.25;;;;;18.98;100.00;102058.94;5061018;28;45368;-86
2022/06/13 07:24:07;;;;;;;;;9.00;7.50;;;;;19.21;100.00;102048.13;5045008;28;45248;-86
2022/06/13 07:26:33;;;;;;;;;9.25;9.25;;;;;18.83;100.00;102059.34;5067768;28;44695;-86
2022/06/13 07:28:59;;;;;;;;;8.00;7.00;;;;;18.72;100.00;102073.66;5059628;28;45079;-86
2022/06/13 07:31:41;;;;;;;;;5.00;4.00;;;;;18.99;100.00;102065.19;5060771;28;45327;-86
2022/06/13 07:34:13;;;;;;;;;4.00;2.20;;;;;19.18;100.00;102061.84;5044314;28;44697;-88
2022/06/13 07:36:38;;;;;;;;;5.60;3.60;;;;;19.24;100.00;102054.13;5044792;28;44971;-86
2022/06/13 07:39:04;;;;;;;;;7.50;7.50;;;;;18.95;100.00;102061.91;5070692;28;45270;-89
2022/06/13 07:41:29;;;;;;;;;6.25;6.25;;;;;18.68;100.00;102054.19;5070305;28;44807;-89
2022/06/13 07:43:56;;;;;;;;;9.25;7.75;;;;;18.45;100.00;102052.44;5074964;28;44799;-93
2022/06/13 07:46:29;;;;;;;;;7.60;5.40;;;;;18.69;100.00;102063.13;5076976;28;44933;-91
2022/06/13 07:48:55;;;;;;;;;8.60;5.80;;;;;19.06;100.00;102066.41;5061975;28;45288;-91
2022/06/13 07:51:23;;;;;;;;;9.75;6.50;;;;;19.14;100.00;102063.06;5079487;28;44757;-89
2022/06/13 07:53:51;;;;;;;;;8.00;7.20;;;;;19.18;100.00;102060.00;5056596;28;44673;-88
2022/06/13 07:56:22;;;;;;;;;13.00;11.80;;;;;19.18;100.00;102073.47;5060339;28;45643;-90
2022/06/13 07:58:50;;;;;;;;;5.80;5.20;;;;;19.02;100.00;102080.25;5040500;28;47513;-91
2022/06/13 08:01:18;;;;;;;;;9.00;5.20;;;;;19.02;100.00;102078.41;5074224;28;44635;-90
2022/06/13 08:03:45;;;;;;;;;6.60;4.60;;;;;19.15;100.00;102070.19;5073045;28;44763;-92
2022/06/13 08:06:11;;;;;;;;;8.20;5.80;;;;;19.18;100.00;102075.31;5072028;28;45419;-89
2022/06/13 08:08:42;;;;;;;;;8.00;6.20;;;;;19.27;100.00;102066.47;5073797;28;45312;-89
2022/06/13 08:11:09;;;;;;;;;7.00;6.60;;;;;19.50;100.00;102067.25;5072139;28;44758;-90
2022/06/13 08:13:38;;;;;;;;;10.40;7.60;;;;;19.52;100.00;102074.22;5072973;28;44704;-92
2022/06/13 08:16:06;;;;;;;;;6.20;6.20;;;;;19.52;100.00;102063.44;5059393;28;44894;-90
2022/06/13 08:18:32;;;;;;;;;6.20;6.20;;;;;19.72;100.00;102060.94;5078938;28;45645;-91
2022/06/13 08:20:59;;;;;;;;;8.00;5.00;;;;;19.69;100.00;102063.91;5065032;28;45435;-90
2022/06/13 08:23:26;;;;;;;;;10.40;7.20;;;;;19.67;100.00;102073.94;5084327;28;44722;-90
2022/06/13 08:25:51;;;;;;;;;12.60;7.60;;;;;19.59;100.00;102071.03;5086081;28;44848;-91
2022/06/13 08:28:19;;;;;;;;;9.75;5.50;;;;;19.69;100.00;102066.63;5048800;28;46751;-91
2022/06/13 08:30:54;;;;;;;;;5.60;5.20;;;;;19.58;100.00;102074.69;5061053;28;44696;-88
2022/06/13 08:33:20;;;;;;;;;10.60;6.60;;;;;19.58;100.00;102072.00;5058121;28;44766;-89
2022/06/13 08:35:46;;;;;;;;;7.00;4.80;;;;;19.61;100.00;102069.09;5069213;28;44829;-89
2022/06/13 08:38:12;;;;;;;;;5.25;2.00;;;;;19.59;100.00;102062.94;5082824;28;44918;-88
2022/06/13 08:41:17;;;;;;;;;9.25;6.50;;;;;19.84;100.00;102068.00;5084333;28;44873;-87
2022/06/13 08:44:09;;;;;;;;;4.80;4.80;;;;;20.05;100.00;102070.69;5004462;28;45114;-86
2022/06/13 08:47:02;;;;;;;;;6.20;6.20;;;;;19.90;100.00;102072.88;4998441;28;44739;-87
2022/06/13 08:49:44;;;;;;;;;2.80;2.80;;;;;19.56;99.21;102079.38;4982996;28;46611;-87
2022/06/13 08:52:18;;;;;;;;;6.00;4.00;;;;;19.38;100.00;102076.34;4996052;28;44856;-88
2022/06/13 08:54:53;;;;;;;;;7.20;4.00;;;;;19.63;100.00;102077.88;4991938;28;44928;-90
2022/06/13 08:57:24;;;;;;;;;5.20;4.20;;;;;19.84;100.00;102069.84;4983438;28;44924;-92
2022/06/13 08:59:57;;;;;;;;;7.20;6.40;;;;;19.68;99.95;102073.00;4984121;28;45108;-91
2022/06/13 09:02:29;;;;;;;;;4.60;4.60;;;;;19.61;99.26;102075.34;4948264;28;44647;-93
2022/06/13 09:05:22;;;;;;;;;6.60;6.20;;;;;19.94;98.76;102068.06;4964126;28;44776;-92
2022/06/13 09:08:46;;;;;;;;;4.20;4.00;;;;;20.03;93.81;102073.53;4977348;28;44788;-92
2022/06/13 09:11:30;;;;;;;;;5.00;3.40;;;;;20.15;92.14;102068.91;4848475;29;45475;-93
2022/06/13 09:14:16;;;;;;;;;4.60;2.80;;;;;20.12;87.17;102080.00;4843751;29;44865;-93
2022/06/13 09:16:52;;;;;;;;;4.20;3.40;;;;;20.27;84.95;102072.41;4841263;29;44745;-93
2022/06/13 09:19:41;;;;;;;;;4.00;2.20;;;;;20.12;86.00;102074.59;4862159;29;44958;-91
2022/06/13 09:22:14;;;;;;;;;10.00;3.20;;;;;20.16;84.85;102075.16;4876232;29;45355;-94
2022/06/13 09:25:09;;;;;;;;;3.00;3.00;;;;;20.17;84.51;102082.31;4862757;29;44825;-92
2022/06/13 09:27:48;;;;;;;;;6.80;5.00;;;;;20.12;86.18;102080.00;4858793;29;44920;-93
2022/06/13 09:30:26;;;;;;;;;4.20;4.20;;;;;20.12;85.37;102076.44;4855925;29;44847;-92
2022/06/13 09:33:00;;;;;;;;;6.20;3.80;;;;;20.06;88.85;102071.56;4856139;29;47194;-94
2022/06/13 09:35:39;;;;;;;;;7.00;6.00;;;;;19.94;89.41;102068.94;4859184;29;44606;-93
2022/06/13 09:38:36;;;;;;;;;3.80;3.80;;;;;20.10;87.88;102071.16;4860883;29;44894;-92
2022/06/13 09:41:48;;;;;;;;;6.00;4.80;;;;;20.38;83.38;102084.97;4861958;29;44925;-92
2022/06/13 09:44:54;;;;;;;;;3.00;1.00;;;;;20.42;83.34;102079.16;4861134;29;45464;-90
2022/06/13 09:47:31;;;;;;;;;5.00;5.00;;;;;20.57;81.67;102074.31;4886781;29;44981;-90
2022/06/13 09:50:24;;;;;;;;;6.20;4.60;;;;;20.83;81.38;102074.69;4917547;29;44717;-89
2022/06/13 09:53:02;;;;;;;;;5.40;4.40;;;;;20.92;80.25;102073.00;4868222;29;45690;-84
2022/06/13 09:55:44;;;;;;;;;7.80;4.20;;;;;20.97;80.02;102074.31;4862554;29;45242;-84
2022/06/13 09:58:13;;;;;;;;;6.60;4.20;;;;;21.00;75.48;102071.34;4864071;29;44836;-85
2022/06/13 10:01:05;;;;;;;;;3.20;3.20;;;;;20.75;75.47;102075.38;4866151;29;44755;-85
2022/06/13 10:03:59;;;;;;;;;6.80;6.00;;;;;20.56;73.22;102066.34;4884666;28;44946;-86
2022/06/13 10:07:03;;;;;;;;;2.20;2.20;;;;;20.54;74.30;102063.75;4920807;28;45351;-89
2022/06/13 10:09:52;;;;;;;;;2.60;1.20;;;;;20.72;73.06;102086.44;4920660;28;44748;-89
2022/06/13 10:12:20;;;;;;;;;4.00;3.00;;;;;20.77;74.46;102070.69;4920156;28;44848;-88
2022/06/13 10:15:19;;;;;;;;;4.80;4.20;;;;;21.02;72.50;102082.00;4921430;28;44983;-87
2022/06/13 10:18:31;;;;;;;;;8.20;5.80;;;;;21.14;72.93;102080.91;4945190;28;46593;-86
2022/06/13 10:21:10;;;;;;;;;6.60;4.60;;;;;20.91;74.75;102079.41;4962633;28;44741;-85
2022/06/13 10:23:45;;;;;;;;;4.20;3.80;;;;;20.88;75.67;102072.41;4985603;28;44856;-87
2022/06/13 10:26:17;;;;;;;;;7.80;5.00;;;;;20.94;76.67;102057.53;4985454;28;45384;-87
2022/06/13 10:29:11;;;;;;;;;5.80;5.80;;;;;21.21;78.91;102059.56;4990823;28;45113;-87
2022/06/13 10:31:40;;;;;;;;;6.60;4.00;;;;;21.48;74.94;102061.63;5048025;28;44718;-85
2022/06/13 10:34:21;;;;;;;;;4.00;3.40;;;;;21.69;71.53;102070.47;5065745;28;44784;-85
2022/06/13 10:37:01;;;;;;;;;3.60;3.40;;;;;21.65;73.42;102062.75;5063376;28;44855;-85
2022/06/13 10:39:29;;;;;;;;;4.20;3.40;;;;;21.83;73.80;102060.19;5056616;28;45208;-86
2022/06/13 10:42:05;;;;;;;;;2.00;2.00;;;;;22.06;76.00;102050.78;5061929;28;44666;-87
2022/06/13 10:44:33;;;;;;;;;5.00;5.00;;;;;22.24;71.46;102059.00;5052945;28;44674;-86
2022/06/13 10:47:15;;;;;;;;;6.60;3.80;;;;;21.95;64.84;102068.03;5059100;28;44848;-87
2022/06/13 10:49:49;;;;;;;;;4.00;4.00;;;;;21.85;63.58;102071.72;5063685;28;45278;-86
2022/06/13 10:52:19;;;;;;;;;4.00;4.00;;;;;21.52;63.96;102073.88;5066187;28;44795;-85
2022/06/13 10:55:03;;;;;;;;;6.60;3.20;;;;;21.37;64.53;102065.34;5067655;28;44772;-88
2022/06/13 10:57:32;;;;;;;;;4.40;3.00;;;;;21.29;64.49;102057.88;5044619;28;45222;-87
2022/06/13 11:00:15;;;;;;;;;7.20;4.40;;;;;21.21;70.02;102064.97;5056348;28;45332;-86
2022/06/13 11:02:41;;;;;;;;;5.00;5.00;;;;;20.94;68.13;102061.09;5048573;28;45410;-87
2022/06/13 11:05:16;;;;;;;;;5.50;4.50;;;;;21.26;69.68;102058.16;5029795;28;45414;-87
2022/06/13 11:07:48;;;;;;;;;8.20;7.00;;;;;21.29;72.73;102055.19;5041475;28;44861;-88
2022/06/13 11:10:32;;;;;;;;;5.80;4.00;;;;;21.36;74.41;102047.38;5042730;28;47396;-86
2022/06/13 11:12:59;;;;;;;;;5.00;5.00;;;;;21.61;70.58;102064.03;5054203;28;44892;-86
2022/06/13 11:24:17;;;;;;;;;6.40;5.60;;;;;22.17;67.07;102050.63;5044097;28;45444;-87
2022/06/13 11:29:32;;;;;;;;;32.50;23.25;;;;;22.50;66.72;102051.94;5040492;28;44826;-88
2022/06/13 11:32:04;;;;;;;;;9.80;7.40;;;;;22.51;66.55;102052.81;5023576;28;45348;-86
2022/06/13 11:34:34;;;;;;;;;7.40;4.60;;;;;22.55;62.84;102046.09;5041022;28;44874;-86
2022/06/13 11:37:16;;;;;;;;;5.60;3.60;;;;;22.74;60.73;102050.56;5004317;28;45252;-86
2022/06/13 11:39:46;;;;;;;;;4.40;4.40;;;;;22.70;59.99;102044.59;5019165;28;45321;-86
2022/06/13 11:42:18;;;;;;;;;4.40;3.20;;;;;22.92;62.76;102037.97;5038090;28;46169;-86
2022/06/13 11:44:49;;;;;;;;;5.00;4.60;;;;;22.98;59.41;102033.78;5033252;28;44747;-86
2022/06/13 11:47:18;;;;;;;;;6.40;6.40;;;;;23.18;60.13;102038.06;5045558;28;44892;-86
2022/06/13 11:49:49;;;;;;;;;5.00;4.00;;;;;23.12;59.44;102045.97;5045422;28;44691;-86
2022/06/13 11:55:30;;;;;;;;;5.20;4.00;;;;;22.83;59.54;102042.41;5036084;28;44699;-94
2022/06/13 11:58:04;;;;;;;;;4.40;2.80;;;;;23.14;58.39;102031.25;5020246;28;44752;-93
2022/06/13 12:00:51;;;;;;;;;6.80;4.20;;;;;23.08;57.45;102031.88;5016248;28;44912;-94
2022/06/13 12:03:43;;;;;;;;;7.00;6.80;;;;;23.13;58.86;102029.53;5037196;28;45008;-93
2022/06/13 12:09:13;;;;;;;;;5.00;5.00;;;;;23.42;62.28;102020.34;5160578;22;45084;-93
2022/06/13 12:11:46;;;;;;;;;4.60;4.20;;;;;22.89;57.60;102027.41;5088431;28;44874;-85
2022/06/13 12:14:12;;;;;;;;;2.60;2.00;;;;;22.63;58.05;102034.50;5079544;28;45433;-87
2022/06/13 12:17:05;;;;;;;;;5.00;1.00;;;;;22.63;57.74;102018.25;5079920;28;44767;-87
2022/06/13 12:19:41;;;;;;;;;4.80;3.80;;;;;22.82;57.63;102028.97;5070584;28;44802;-86
2022/06/13 12:22:33;;;;;;;;;5.00;4.00;;;;;22.93;58.94;102017.13;5079942;28;44923;-87
2022/06/13 12:25:32;;;;;;;;;4.60;4.20;;;;;23.06;59.00;102020.31;5044826;28;46748;-85